Time;durP1;ratioP1;P1;durP2;ratioP2;P2;SDS_P1;SDS_P2;PMS_P1;PMS_P2;Temp;Humidity;BMP_temperature;BMP_pressure;BME280_temperature;BME280_humidity;BME280_pressure;Samples;Min_cycle;Max_cycle;Signal;HPM_P1;HPM_P2
2023/06/07 00:00:56;;;;;;;0.63;0.50;;;7.30;99.90;;;;;;5124611;27;20039;-75
2023/06/07 00:03:22;;;;;;;0.10;0.10;;;7.30;99.90;;;;;;5125073;28;20394;-73
2023/06/07 00:05:53;;;;;;;0.28;0.28;;;7.30;99.90;;;;;;5124605;28;20397;-75
2023/06/07 00:08:23;;;;;;;0.00;0.00;;;7.30;99.90;;;;;;5125645;27;20086;-75
2023/06/07 00:10:49;;;;;;;0.00;0.00;;;7.40;99.90;;;;;;5129300;27;20039;-75
2023/06/07 00:13:15;;;;;;;1.38;0.70;;;7.40;99.90;;;;;;5129890;27;20408;-75
2023/06/07 00:15:40;;;;;;;0.00;0.00;;;7.50;99.90;;;;;;5129688;27;20135;-75
2023/06/07 00:18:07;;;;;;;0.10;0.10;;;7.50;99.90;;;;;;5131060;27;20468;-75
2023/06/07 00:20:33;;;;;;;0.57;0.35;;;7.50;99.90;;;;;;5150208;27;20046;-75
2023/06/07 00:23:01;;;;;;;1.08;0.52;;;7.60;99.90;;;;;;5129928;27;20065;-74
2023/06/07 00:25:27;;;;;;;0.20;0.20;;;7.50;99.90;;;;;;5135637;27;20042;-74
2023/06/07 00:27:53;;;;;;;0.35;0.35;;;7.50;99.90;;;;;;5149742;27;20636;-75
2023/06/07 00:30:18;;;;;;;0.15;0.15;;;7.50;99.90;;;;;;5149577;27;20295;-73
2023/06/07 00:32:45;;;;;;;0.00;0.00;;;7.50;99.90;;;;;;5148741;27;20038;-74
2023/06/07 00:35:14;;;;;;;0.00;0.00;;;7.50;99.90;;;;;;5145390;27;20475;-75
2023/06/07 00:37:41;;;;;;;0.17;0.10;;;7.50;99.90;;;;;;5128539;27;20512;-74
2023/06/07 00:40:07;;;;;;;0.98;0.55;;;7.50;99.90;;;;;;5109614;27;20390;-75
2023/06/07 00:42:33;;;;;;;0.00;0.00;;;7.60;99.90;;;;;;5145794;27;20038;-75
2023/06/07 00:44:59;;;;;;;1.38;0.43;;;7.60;99.90;;;;;;5148874;27;20552;-75
2023/06/07 00:47:26;;;;;;;0.00;0.00;;;7.60;99.90;;;;;;5130307;27;20043;-74
2023/06/07 00:49:52;;;;;;;0.70;0.45;;;7.70;99.90;;;;;;5148754;27;20496;-74
2023/06/07 00:52:17;;;;;;;1.75;0.73;;;7.70;99.90;;;;;;5134285;27;20043;-75
2023/06/07 00:54:44;;;;;;;0.10;0.10;;;7.80;99.90;;;;;;5128133;27;20046;-74
2023/06/07 00:57:10;;;;;;;0.00;0.00;;;7.80;99.90;;;;;;5128438;27;20046;-75
2023/06/07 00:59:37;;;;;;;0.00;0.00;;;7.80;99.90;;;;;;5135728;27;20488;-74
2023/06/07 01:02:03;;;;;;;0.60;0.55;;;7.90;99.90;;;;;;5136455;27;20050;-74
2023/06/07 01:04:30;;;;;;;10.15;1.08;;;7.90;99.90;;;;;;5128043;27;20070;-74
2023/06/07 01:06:56;;;;;;;0.00;0.00;;;8.00;99.90;;;;;;5127735;27;20054;-75
2023/06/07 01:09:23;;;;;;;0.65;0.55;;;8.10;99.90;;;;;;5127162;27;20054;-75
2023/06/07 01:11:51;;;;;;;0.47;0.35;;;8.00;99.90;;;;;;5127296;27;20047;-75
2023/06/07 01:14:18;;;;;;;0.10;0.10;;;8.00;99.90;;;;;;5127978;27;20146;-75
2023/06/07 01:16:48;;;;;;;0.45;0.45;;;8.00;99.90;;;;;;5128335;27;20047;-75
2023/06/07 01:19:36;;;;;;;6.18;0.77;;;8.00;99.90;;;;;;5132968;27;20130;-75
2023/06/07 01:22:05;;;;;;;0.00;0.00;;;8.00;99.90;;;;;;5126876;27;20122;-75
2023/06/07 01:24:42;;;;;;;0.10;0.10;;;8.00;99.90;;;;;;5122921;27;20176;-74
2023/06/07 01:27:08;;;;;;;0.00;0.00;;;8.10;99.90;;;;;;5126936;27;20126;-75
2023/06/07 01:29:34;;;;;;;0.50;0.35;;;7.90;99.90;;;;;;5127725;27;20047;-74
2023/06/07 01:32:04;;;;;;;1.08;0.73;;;7.80;99.90;;;;;;5127930;27;20050;-75
2023/06/07 01:34:31;;;;;;;0.50;0.35;;;7.80;99.90;;;;;;5127240;27;20107;-75
2023/06/07 01:36:57;;;;;;;0.10;0.10;;;7.80;99.90;;;;;;5126888;27;20075;-75
2023/06/07 01:39:24;;;;;;;0.00;0.00;;;7.70;99.90;;;;;;5126726;27;20516;-74
2023/06/07 01:41:51;;;;;;;0.35;0.25;;;7.70;99.90;;;;;;5106350;28;20046;-75
2023/06/07 01:44:18;;;;;;;0.28;0.17;;;7.70;99.90;;;;;;5107090;28;20050;-75
2023/06/07 01:46:44;;;;;;;0.13;0.13;;;7.70;99.90;;;;;;5128317;27;20070;-76
2023/06/07 01:49:11;;;;;;;0.00;0.00;;;7.60;99.90;;;;;;5147613;27;20050;-75
2023/06/07 01:51:37;;;;;;;0.00;0.00;;;7.50;99.90;;;;;;5110859;27;20078;-75
2023/06/07 01:54:05;;;;;;;0.22;0.10;;;7.40;99.90;;;;;;5126610;27;20035;-75
2023/06/07 01:57:12;;;;;;;0.00;0.00;;;7.40;99.90;;;;;;5137472;27;20393;-75
2023/06/07 02:00:20;;;;;;;0.10;0.10;;;7.30;99.90;;;;;;5147096;27;20051;-75
2023/06/07 02:02:55;;;;;;;0.00;0.00;;;7.20;99.90;;;;;;5042760;28;20045;-75
2023/06/07 02:05:43;;;;;;;0.00;0.00;;;7.10;99.90;;;;;;5099210;27;20060;-75
2023/06/07 02:08:19;;;;;;;0.00;0.00;;;7.00;99.90;;;;;;5147471;27;20055;-74
2023/06/07 02:10:46;;;;;;;0.00;0.00;;;7.10;99.90;;;;;;5147177;27;20073;-74
2023/06/07 02:13:14;;;;;;;0.00;0.00;;;7.10;99.90;;;;;;5147799;27;20051;-75
2023/06/07 02:15:43;;;;;;;0.00;0.00;;;7.20;99.90;;;;;;5128826;27;20425;-75
2023/06/07 02:18:11;;;;;;;0.00;0.00;;;7.20;99.90;;;;;;5127436;27;20039;-74
2023/06/07 02:20:37;;;;;;;0.32;0.32;;;7.20;99.90;;;;;;5126961;27;20047;-74
2023/06/07 02:23:03;;;;;;;0.17;0.17;;;7.40;99.90;;;;;;5127172;27;20566;-76
2023/06/07 02:25:28;;;;;;;0.20;0.13;;;7.50;99.90;;;;;;5125964;27;20501;-75
2023/06/07 02:27:54;;;;;;;0.22;0.20;;;7.50;99.90;;;;;;5126839;27;20050;-75
2023/06/07 02:30:20;;;;;;;0.38;0.32;;;7.60;99.90;;;;;;5112517;27;20125;-75
2023/06/07 02:32:48;;;;;;;0.00;0.00;;;7.70;99.90;;;;;;5146942;27;20091;-74
2023/06/07 02:35:16;;;;;;;0.00;0.00;;;7.80;99.90;;;;;;5147370;27;20066;-74
2023/06/07 02:37:41;;;;;;;0.38;0.38;;;7.90;99.90;;;;;;5126859;27;20731;-75
2023/06/07 02:40:10;;;;;;;0.30;0.30;;;7.90;99.90;;;;;;5126158;27;20509;-75
2023/06/07 02:42:37;;;;;;;0.28;0.17;;;8.00;99.90;;;;;;5126248;27;20438;-75
2023/06/07 02:45:03;;;;;;;0.00;0.00;;;8.10;99.90;;;;;;5126563;27;20078;-75
2023/06/07 02:47:30;;;;;;;0.00;0.00;;;8.10;99.90;;;;;;5126569;27;20043;-75
2023/06/07 02:49:57;;;;;;;0.00;0.00;;;8.20;99.90;;;;;;5125864;27;20051;-75
2023/06/07 02:52:23;;;;;;;0.68;0.40;;;8.20;99.90;;;;;;5126501;27;20490;-75
2023/06/07 02:54:49;;;;;;;0.32;0.32;;;8.30;99.90;;;;;;5125844;27;20046;-75
2023/06/07 02:57:14;;;;;;;0.00;0.00;;;8.30;99.90;;;;;;5125977;27;20043;-75
2023/06/07 02:59:41;;;;;;;0.00;0.00;;;8.30;99.90;;;;;;5126164;27;20043;-75
2023/06/07 03:02:07;;;;;;;0.00;0.00;;;8.40;99.90;;;;;;5125544;27;20073;-75
2023/06/07 03:04:33;;;;;;;0.00;0.00;;;8.50;99.90;;;;;;5126125;27;20046;-75
2023/06/07 03:07:00;;;;;;;0.20;0.20;;;8.50;99.90;;;;;;5127179;27;20126;-75
2023/06/07 03:09:25;;;;;;;0.10;0.10;;;8.60;99.90;;;;;;5125959;27;20047;-75
2023/06/07 03:11:51;;;;;;;1.10;1.00;;;8.60;99.90;;;;;;5125720;27;20122;-75
2023/06/07 03:14:18;;;;;;;0.85;0.63;;;8.60;99.90;;;;;;5125721;27;20596;-75
2023/06/07 03:16:45;;;;;;;0.00;0.00;;;8.70;99.90;;;;;;5125317;27;20043;-76
2023/06/07 03:19:11;;;;;;;0.30;0.25;;;8.70;99.90;;;;;;5125241;27;20049;-75
2023/06/07 03:21:44;;;;;;;0.00;0.00;;;8.70;99.90;;;;;;5142406;27;20477;-75
2023/06/07 03:24:13;;;;;;;0.30;0.20;;;8.80;99.90;;;;;;5146409;27;20374;-76
2023/06/07 03:26:39;;;;;;;0.30;0.15;;;8.80;99.90;;;;;;5132714;27;20065;-75
2023/06/07 03:29:06;;;;;;;0.75;0.60;;;8.90;99.90;;;;;;5125377;27;20143;-75
2023/06/07 03:31:31;;;;;;;12.50;0.45;;;9.00;99.90;;;;;;5125628;27;20100;-75
2023/06/07 03:33:58;;;;;;;0.90;0.32;;;9.00;99.90;;;;;;5125259;27;20447;-75
2023/06/07 03:36:28;;;;;;;2.90;2.03;;;9.30;99.90;;;;;;5126317;27;20401;-76
2023/06/07 03:39:03;;;;;;;0.00;0.00;;;9.00;99.90;;;;;;5126069;27;20047;-75
2023/06/07 03:41:29;;;;;;;0.52;0.30;;;9.00;99.90;;;;;;5125339;28;20501;-75
2023/06/07 03:43:54;;;;;;;2.67;0.43;;;9.10;99.90;;;;;;5125094;27;20090;-75
2023/06/07 03:46:20;;;;;;;0.03;0.03;;;9.20;99.90;;;;;;5125255;28;20523;-75
2023/06/07 03:48:46;;;;;;;0.43;0.40;;;9.30;99.90;;;;;;5125070;28;20511;-75
2023/06/07 03:51:11;;;;;;;0.00;0.00;;;9.30;99.90;;;;;;5125538;28;20544;-77
2023/06/07 03:53:38;;;;;;;0.00;0.00;;;9.30;99.90;;;;;;5125438;28;20451;-74
2023/06/07 03:56:05;;;;;;;0.00;0.00;;;9.40;99.90;;;;;;5106511;28;20126;-75
2023/06/07 03:58:31;;;;;;;0.00;0.00;;;9.40;99.90;;;;;;5125102;28;20043;-75
2023/06/07 04:00:57;;;;;;;0.00;0.00;;;9.50;99.90;;;;;;5125134;27;20493;-75
2023/06/07 04:03:24;;;;;;;0.73;0.60;;;9.60;99.90;;;;;;5124534;28;20039;-75
2023/06/07 04:05:52;;;;;;;0.10;0.10;;;9.70;99.90;;;;;;5132174;27;20087;-75
2023/06/07 04:08:17;;;;;;;0.13;0.10;;;10.30;99.90;;;;;;5106194;28;20046;-75
2023/06/07 04:10:43;;;;;;;0.05;0.05;;;9.90;99.90;;;;;;5125082;28;20043;-75
2023/06/07 04:13:09;;;;;;;0.00;0.00;;;10.00;99.90;;;;;;5124967;28;20063;-76
2023/06/07 04:15:34;;;;;;;0.20;0.20;;;10.10;99.90;;;;;;5126403;27;20039;-75
2023/06/07 04:18:00;;;;;;;0.13;0.13;;;10.20;99.90;;;;;;5124685;28;20096;-75
2023/06/07 04:20:27;;;;;;;0.60;0.60;;;10.20;99.90;;;;;;5124990;28;20515;-75
2023/06/07 04:22:53;;;;;;;0.52;0.22;;;10.30;99.90;;;;;;5125085;28;20107;-74
2023/06/07 04:25:21;;;;;;;0.88;0.88;;;10.60;99.90;;;;;;5125027;27;20051;-75
2023/06/07 04:27:48;;;;;;;0.00;0.00;;;10.50;99.90;;;;;;5125153;28;20075;-75
2023/06/07 04:30:15;;;;;;;0.00;0.00;;;10.50;99.90;;;;;;5124785;28;20039;-75
2023/06/07 04:32:43;;;;;;;0.00;0.00;;;10.70;99.90;;;;;;5125101;28;20501;-75
2023/06/07 04:35:09;;;;;;;0.10;0.10;;;10.80;99.90;;;;;;5125742;28;20057;-75
2023/06/07 04:37:35;;;;;;;0.10;0.10;;;11.00;99.90;;;;;;5125614;28;20118;-76
2023/06/07 04:40:01;;;;;;;0.50;0.43;;;11.00;99.90;;;;;;5125571;28;20557;-74
2023/06/07 04:42:27;;;;;;;1.05;0.57;;;11.10;99.90;;;;;;5125336;28;20504;-75
2023/06/07 04:44:53;;;;;;;0.08;0.08;;;11.20;99.90;;;;;;5130336;27;20121;-75
2023/06/07 04:47:19;;;;;;;0.47;0.32;;;11.20;99.90;;;;;;5145125;27;20115;-76
2023/06/07 04:49:46;;;;;;;0.17;0.17;;;11.30;99.90;;;;;;5135750;27;20054;-74
2023/06/07 04:52:19;;;;;;;0.63;0.52;;;11.50;99.90;;;;;;5124903;28;20382;-75
2023/06/07 04:54:46;;;;;;;0.10;0.00;;;11.60;99.90;;;;;;5129547;27;20050;-76
2023/06/07 04:57:13;;;;;;;1.02;0.55;;;11.80;99.90;;;;;;5148364;27;20054;-75
2023/06/07 04:59:42;;;;;;;2.08;0.38;;;12.00;99.90;;;;;;5135715;27;20078;-75
2023/06/07 05:02:09;;;;;;;0.05;0.05;;;12.10;99.90;;;;;;5127828;27;20148;-76
2023/06/07 05:04:34;;;;;;;0.40;0.40;;;12.20;99.90;;;;;;5130747;27;20045;-76
2023/06/07 05:07:00;;;;;;;0.40;0.35;;;12.30;99.90;;;;;;5148804;27;20054;-75
2023/06/07 05:09:26;;;;;;;4.95;0.55;;;12.40;99.90;;;;;;5138695;27;20413;-76
2023/06/07 05:11:52;;;;;;;0.32;0.22;;;12.90;99.90;;;;;;5127662;27;20043;-77
2023/06/07 05:14:18;;;;;;;0.30;0.30;;;12.80;99.90;;;;;;5127575;27;20047;-74
2023/06/07 05:16:44;;;;;;;1.83;0.73;;;12.90;1.00;;;;;;5128173;27;20043;-76
2023/06/07 05:19:10;;;;;;;1.27;0.70;;;13.30;1.00;;;;;;5134288;27;20142;-75
2023/06/07 05:21:37;;;;;;;0.20;0.10;;;13.30;99.90;;;;;;5148235;27;20501;-76
2023/06/07 05:24:03;;;;;;;0.32;0.15;;;13.40;99.90;;;;;;5148087;27;20043;-76
2023/06/07 05:26:28;;;;;;;0.55;0.50;;;13.40;79.50;;;;;;5132630;27;20043;-76
2023/06/07 05:28:55;;;;;;;0.13;0.13;;;13.40;1.00;;;;;;5127014;27;20039;-76
2023/06/07 05:31:22;;;;;;;1.33;0.20;;;13.50;99.90;;;;;;5127157;27;20501;-76
2023/06/07 05:33:48;;;;;;;0.30;0.30;;;13.70;99.90;;;;;;5139316;27;20058;-75
2023/06/07 05:36:14;;;;;;;0.05;0.05;;;13.70;99.90;;;;;;5148070;27;20034;-75
2023/06/07 05:38:40;;;;;;;0.52;0.20;;;13.80;1.00;;;;;;5147343;27;20470;-78
2023/06/07 05:41:07;;;;;;;0.40;0.40;;;13.90;1.00;;;;;;5127468;27;20035;-75
2023/06/07 05:43:32;;;;;;;0.30;0.17;;;14.00;1.00;;;;;;5126886;27;20035;-75
2023/06/07 05:45:58;;;;;;;0.43;0.32;;;14.10;99.90;;;;;;5127240;27;20104;-75
2023/06/07 05:48:24;;;;;;;0.10;0.10;;;14.20;99.90;;;;;;5126732;27;20043;-76
2023/06/07 05:50:49;;;;;;;0.00;0.00;;;14.30;1.00;;;;;;5142378;27;20038;-76
2023/06/07 05:53:16;;;;;;;0.20;0.20;;;14.20;99.90;;;;;;5129111;27;20145;-76
2023/06/07 05:55:42;;;;;;;0.15;0.10;;;14.40;98.10;;;;;;5146354;27;20043;-76
2023/06/07 05:58:07;;;;;;;0.00;0.00;;;14.90;99.90;;;;;;5138748;27;20405;-76
2023/06/07 06:00:33;;;;;;;1.45;1.08;;;14.80;99.90;;;;;;5124278;27;20073;-76
2023/06/07 06:03:01;;;;;;;1.88;0.75;;;14.90;1.00;;;;;;5124543;27;20060;-76
2023/06/07 06:05:30;;;;;;;2.00;0.93;;;15.20;1.00;;;;;;5124577;27;20130;-76
2023/06/07 06:07:56;;;;;;;1.08;0.30;;;15.40;99.90;;;;;;5135484;27;20396;-76
2023/06/07 06:10:23;;;;;;;0.20;0.20;;;15.60;1.00;;;;;;5133421;27;20050;-76
2023/06/07 06:12:49;;;;;;;0.15;0.15;;;15.60;99.90;;;;;;5124293;27;20083;-76
2023/06/07 06:15:14;;;;;;;1.40;1.00;;;15.50;37.40;;;;;;5123949;27;20051;-76
2023/06/07 06:17:40;;;;;;;1.67;1.00;;;15.40;1.00;;;;;;5124242;27;20043;-76
2023/06/07 06:20:07;;;;;;;3.55;1.40;;;15.00;1.00;;;;;;5132732;27;20043;-76
2023/06/07 06:22:33;;;;;;;0.43;0.30;;;15.10;1.00;;;;;;5144934;27;20542;-76
2023/06/07 06:25:00;;;;;;;0.60;0.55;;;14.90;99.90;;;;;;5144818;27;20485;-76
2023/06/07 06:27:26;;;;;;;0.20;0.20;;;14.90;1.00;;;;;;5144920;27;20126;-76
2023/06/07 06:29:51;;;;;;;1.05;0.55;;;14.90;1.00;;;;;;5138062;27;20043;-76
2023/06/07 06:32:17;;;;;;;5.47;0.73;;;15.10;1.00;;;;;;5124279;27;20055;-76
2023/06/07 06:34:44;;;;;;;0.00;0.00;;;15.30;1.00;;;;;;5123785;27;20149;-76
2023/06/07 06:37:10;;;;;;;2.72;0.95;;;15.40;99.90;;;;;;5124087;27;20047;-76
2023/06/07 06:39:35;;;;;;;0.00;0.00;;;15.40;99.90;;;;;;5123554;27;20088;-76
2023/06/07 06:42:01;;;;;;;1.75;1.05;;;16.10;99.90;;;;;;5124072;27;20493;-76
2023/06/07 06:44:27;;;;;;;0.20;0.15;;;17.10;99.90;;;;;;5136734;27;20145;-76
2023/06/07 06:46:52;;;;;;;0.88;0.30;;;17.40;99.90;;;;;;5144410;27;20038;-76
2023/06/07 06:49:18;;;;;;;0.13;0.13;;;18.40;99.90;;;;;;5142510;27;20051;-76
2023/06/07 06:51:45;;;;;;;0.00;0.00;;;18.50;92.00;;;;;;5144313;27;20057;-76
2023/06/07 06:54:12;;;;;;;0.00;0.00;;;18.80;99.90;;;;;;5144138;27;20091;-76
2023/06/07 06:56:37;;;;;;;0.05;0.05;;;18.90;45.90;;;;;;5144042;27;20050;-76
2023/06/07 06:59:03;;;;;;;0.10;0.10;;;18.40;6.30;;;;;;5131572;27;20039;-76
2023/06/07 07:01:46;;;;;;;0.10;0.10;;;17.90;38.10;;;;;;5143185;27;20400;-76
2023/06/07 07:04:13;;;;;;;0.20;0.20;;;17.60;72.20;;;;;;5143946;27;20035;-76
2023/06/07 07:06:40;;;;;;;0.10;0.10;;;18.00;92.30;;;;;;5144039;27;20125;-75
2023/06/07 07:09:06;;;;;;;0.05;0.05;;;19.10;24.10;;;;;;5131148;27;20100;-76
2023/06/07 07:11:31;;;;;;;1.38;0.75;;;19.70;93.40;;;;;;5123131;27;20043;-76
2023/06/07 07:13:57;;;;;;;0.43;0.35;;;19.30;1.00;;;;;;5122836;27;20069;-76
2023/06/07 07:16:23;;;;;;;0.95;0.52;;;19.50;29.60;;;;;;5123072;27;20454;-76
2023/06/07 07:18:48;;;;;;;0.00;0.00;;;20.80;96.70;;;;;;5131698;27;20087;-76
2023/06/07 07:21:14;;;;;;;0.88;0.57;;;22.00;1.00;;;;;;5144530;27;20095;-76
2023/06/07 07:23:40;;;;;;;0.03;0.03;;;22.40;1.00;;;;;;5143835;27;20514;-76
2023/06/07 07:26:05;;;;;;;0.63;0.63;;;22.70;1.00;;;;;;5143961;27;20083;-76
2023/06/07 07:28:31;;;;;;;0.43;0.43;;;22.30;1.00;;;;;;5136634;27;20039;-76
2023/06/07 07:30:57;;;;;;;0.00;0.00;;;23.30;1.00;;;;;;5121983;27;20505;-76
2023/06/07 07:33:22;;;;;;;0.57;0.52;;;24.30;1.00;;;;;;5101948;27;20588;-74
2023/06/07 07:35:48;;;;;;;0.93;0.38;;;25.00;34.10;;;;;;5120529;27;20085;-74
2023/06/07 07:38:15;;;;;;;1.25;0.52;;;24.70;1.00;;;;;;5116573;27;20078;-74
2023/06/07 07:40:44;;;;;;;0.30;0.30;;;24.90;1.00;;;;;;5118955;27;20130;-74
2023/06/07 07:43:10;;;;;;;0.00;0.00;;;25.20;1.00;;;;;;5119112;27;20047;-75
2023/06/07 07:45:37;;;;;;;0.30;0.30;;;24.30;1.00;;;;;;5117444;28;20043;-75
2023/06/07 07:48:03;;;;;;;0.03;0.03;;;23.30;1.00;;;;;;5121087;27;20065;-75
2023/06/07 07:50:29;;;;;;;0.75;0.43;;;23.20;1.00;;;;;;5118469;27;20153;-75
2023/06/07 07:52:56;;;;;;;3.60;1.15;;;22.60;99.90;;;;;;5120346;27;20059;-75
2023/06/07 07:55:23;;;;;;;0.93;0.90;;;22.30;99.90;;;;;;5120513;28;20078;-74
2023/06/07 07:57:49;;;;;;;4.30;1.13;;;22.80;1.00;;;;;;5120596;27;20367;-74
2023/06/07 08:00:16;;;;;;;0.15;0.15;;;23.20;1.00;;;;;;5101896;28;20066;-74
2023/06/07 08:02:42;;;;;;;19.80;1.42;;;24.00;1.00;;;;;;5132355;27;20424;-74
2023/06/07 08:05:08;;;;;;;0.75;0.52;;;24.30;1.00;;;;;;5140724;27;20061;-74
2023/06/07 08:07:34;;;;;;;0.40;0.40;;;24.80;1.00;;;;;;5140669;27;20531;-74
2023/06/07 08:09:59;;;;;;;0.28;0.20;;;25.20;1.00;;;;;;5140704;27;20074;-74
2023/06/07 08:12:25;;;;;;;0.05;0.05;;;24.60;1.00;;;;;;5130379;27;20059;-74
2023/06/07 08:14:51;;;;;;;2.72;0.65;;;24.90;1.00;;;;;;5119961;28;20058;-76
2023/06/07 08:17:18;;;;;;;0.05;0.05;;;25.10;1.00;;;;;;5119823;27;20047;-77
2023/06/07 08:19:43;;;;;;;1.85;0.93;;;25.30;1.00;;;;;;5119824;28;20540;-77
2023/06/07 08:22:09;;;;;;;0.20;0.20;;;25.30;1.00;;;;;;5108317;27;20043;-77
2023/06/07 08:24:35;;;;;;;1.08;0.57;;;24.90;1.00;;;;;;5140729;27;20564;-77
2023/06/07 08:27:01;;;;;;;2.60;0.70;;;25.20;1.00;;;;;;5127885;27;20047;-77
2023/06/07 08:29:26;;;;;;;5.65;1.27;;;25.40;1.00;;;;;;5119665;27;20050;-77
2023/06/07 08:31:53;;;;;;;8.63;0.70;;;25.00;1.00;;;;;;5123789;27;20100;-77
2023/06/07 08:34:20;;;;;;;2.17;0.70;;;25.50;1.00;;;;;;5123530;27;20494;-76
2023/06/07 08:36:48;;;;;;;1.27;0.35;;;25.30;99.90;;;;;;5133399;27;20095;-77
2023/06/07 08:39:14;;;;;;;0.47;0.43;;;26.00;1.00;;;;;;5144412;27;20042;-77
2023/06/07 08:41:39;;;;;;;0.20;0.20;;;26.40;1.00;;;;;;5141876;27;20095;-77
2023/06/07 08:44:05;;;;;;;1.00;0.75;;;26.20;1.00;;;;;;5105322;27;20087;-77
2023/06/07 08:46:32;;;;;;;3.90;0.50;;;26.00;99.90;;;;;;5123340;27;20035;-76
2023/06/07 08:48:59;;;;;;;0.30;0.30;;;25.20;99.90;;;;;;5123438;27;20054;-76
2023/06/07 08:51:27;;;;;;;1.02;0.57;;;25.30;99.90;;;;;;5125647;27;20039;-76
2023/06/07 08:53:55;;;;;;;1.02;0.70;;;25.80;99.90;;;;;;5143688;27;20605;-76
2023/06/07 08:56:22;;;;;;;2.58;0.50;;;25.50;99.90;;;;;;5140400;27;20721;-76
2023/06/07 08:58:50;;;;;;;1.90;0.75;;;25.80;99.90;;;;;;5123543;27;20153;-76
2023/06/07 09:01:16;;;;;;;3.92;0.85;;;26.20;99.90;;;;;;5123297;27;20043;-76
2023/06/07 09:03:42;;;;;;;2.75;1.55;;;26.10;99.90;;;;;;5141372;27;20352;-76
2023/06/07 09:06:08;;;;;;;1.45;0.77;;;26.30;99.90;;;;;;5125304;27;20054;-76
2023/06/07 09:08:33;;;;;;;1.05;0.65;;;26.30;99.90;;;;;;5143889;27;20107;-76
2023/06/07 09:10:59;;;;;;;0.88;0.77;;;26.20;99.90;;;;;;5143722;27;20074;-76
2023/06/07 09:13:25;;;;;;;0.68;0.63;;;26.10;99.90;;;;;;5131226;27;20497;-76
2023/06/07 09:15:52;;;;;;;0.47;0.32;;;25.90;99.90;;;;;;5143770;27;20050;-76
2023/06/07 09:18:18;;;;;;;1.67;1.17;;;25.90;99.90;;;;;;5143682;27;20042;-76
2023/06/07 09:20:44;;;;;;;1.10;1.00;;;26.10;99.90;;;;;;5143906;27;20054;-76
2023/06/07 09:23:14;;;;;;;4.22;0.82;;;26.40;99.90;;;;;;5129744;27;20043;-76
2023/06/07 09:25:44;;;;;;;1.80;0.95;;;26.80;99.90;;;;;;5126400;27;20503;-76
2023/06/07 09:28:14;;;;;;;0.00;0.00;;;27.00;99.90;;;;;;5122855;27;20549;-76
2023/06/07 09:30:55;;;;;;;0.00;0.00;;;27.00;99.90;;;;;;5122916;27;20054;-73
2023/06/07 09:33:33;;;;;;;0.65;0.38;;;27.20;99.90;;;;;;5125609;27;20075;-73
2023/06/07 09:36:09;;;;;;;0.57;0.45;;;27.30;99.90;;;;;;5132264;27;20113;-73
2023/06/07 09:38:38;;;;;;;0.10;0.10;;;27.90;99.90;;;;;;5134522;27;20054;-73
2023/06/07 09:41:05;;;;;;;0.45;0.32;;;27.80;99.90;;;;;;5104746;28;20506;-73
2023/06/07 09:43:50;;;;;;;0.82;0.52;;;27.10;99.90;;;;;;5122276;27;20039;-73
2023/06/07 09:46:18;;;;;;;0.40;0.35;;;27.10;99.90;;;;;;5137601;27;20129;-73
2023/06/07 09:48:53;;;;;;;2.38;0.70;;;27.20;99.90;;;;;;5122338;27;20523;-72
2023/06/07 09:51:20;;;;;;;0.75;0.47;;;27.20;99.90;;;;;;5122324;27;20051;-72
2023/06/07 09:53:56;;;;;;;2.05;0.70;;;27.30;99.90;;;;;;5121926;27;20122;-72
2023/06/07 09:56:23;;;;;;;0.10;0.10;;;26.70;99.90;;;;;;5139701;27;20658;-73
2023/06/07 09:59:07;;;;;;;1.27;0.63;;;26.40;99.90;;;;;;5142837;27;20050;-72
2023/06/07 10:01:45;;;;;;;1.48;0.73;;;26.60;99.90;;;;;;5140854;27;20047;-73
2023/06/07 10:04:11;;;;;;;0.30;0.30;;;26.30;99.90;;;;;;5121627;27;20483;-73
2023/06/07 10:06:40;;;;;;;3.65;1.83;;;26.00;99.90;;;;;;5122535;27;20073;-72
2023/06/07 10:09:06;;;;;;;0.63;0.28;;;25.50;99.90;;;;;;5121562;27;20054;-73
2023/06/07 10:11:36;;;;;;;2.28;0.60;;;25.00;99.90;;;;;;5121402;27;20075;-73
2023/06/07 10:14:13;;;;;;;0.32;0.22;;;24.60;99.90;;;;;;5121295;27;20593;-73
2023/06/07 10:16:54;;;;;;;1.20;0.65;;;24.40;99.90;;;;;;5141141;27;20049;-73
2023/06/07 10:19:28;;;;;;;0.22;0.22;;;24.20;99.90;;;;;;5141673;27;20046;-73
2023/06/07 10:21:57;;;;;;;0.08;0.08;;;24.00;99.90;;;;;;5138123;27;20116;-73
2023/06/07 10:24:35;;;;;;;2.40;1.55;;;24.00;99.90;;;;;;5121538;27;20051;-73
2023/06/07 10:27:11;;;;;;;4.20;1.50;;;24.00;99.90;;;;;;5141993;27;20058;-73
2023/06/07 10:29:52;;;;;;;0.25;0.25;;;23.60;99.90;;;;;;5141897;27;20500;-74
2023/06/07 10:32:25;;;;;;;0.32;0.30;;;23.60;99.90;;;;;;5135459;27;20043;-73
2023/06/07 10:34:54;;;;;;;1.10;0.82;;;23.70;99.90;;;;;;5129345;27;20047;-72
2023/06/07 10:37:20;;;;;;;1.27;0.60;;;23.70;99.90;;;;;;5120945;27;20040;-72
2023/06/07 10:39:46;;;;;;;2.00;1.13;;;23.80;99.90;;;;;;5120929;27;20050;-71
2023/06/07 10:42:13;;;;;;;1.33;0.60;;;23.70;99.90;;;;;;5121049;27;20715;-71
2023/06/07 10:44:39;;;;;;;6.65;1.20;;;23.90;99.90;;;;;;5120974;27;20039;-71
2023/06/07 10:47:25;;;;;;;0.10;0.10;;;24.10;99.90;;;;;;5131978;27;20046;-71
2023/06/07 10:49:51;;;;;;;;;;;24.00;99.90;;;;;;5142503;27;20053;-72
2023/06/07 10:52:17;;;;;;;1.35;0.85;;;23.90;99.90;;;;;;5141880;27;19922;-72
2023/06/07 10:54:44;;;;;;;2.03;0.80;;;23.70;99.90;;;;;;5142762;27;20083;-73
2023/06/07 10:57:10;;;;;;;0.15;0.15;;;23.70;99.90;;;;;;5141435;27;20050;-73
2023/06/07 10:59:37;;;;;;;0.05;0.05;;;24.00;99.90;;;;;;5123591;27;20047;-73
2023/06/07 11:02:24;;;;;;;0.00;0.00;;;24.50;99.90;;;;;;5123497;27;20393;-73
2023/06/07 11:04:57;;;;;;;0.70;0.15;;;24.60;99.90;;;;;;5123243;27;20201;-72
2023/06/07 11:07:28;;;;;;;0.00;0.00;;;24.60;99.90;;;;;;5123192;27;20051;-71
2023/06/07 11:10:03;;;;;;;0.52;0.47;;;24.50;99.90;;;;;;5123477;27;20086;-72
2023/06/07 11:12:34;;;;;;;0.20;0.20;;;24.70;99.90;;;;;;5123807;27;20059;-72
2023/06/07 11:15:20;;;;;;;1.17;0.90;;;24.60;99.90;;;;;;5124305;27;20910;-72
2023/06/07 11:17:56;;;;;;;19.50;0.68;;;24.30;99.90;;;;;;5137892;27;20409;-72
2023/06/07 11:20:37;;;;;;;0.20;0.20;;;24.40;99.90;;;;;;5121550;27;20042;-72
2023/06/07 11:23:22;;;;;;;0.17;0.17;;;24.40;99.90;;;;;;5119863;27;20051;-72
2023/06/07 11:25:49;;;;;;;0.32;0.32;;;24.60;99.90;;;;;;5123190;27;20336;-75
2023/06/07 11:28:16;;;;;;;1.95;0.70;;;24.40;99.90;;;;;;5141211;27;20121;-75
2023/06/07 11:30:42;;;;;;;0.35;0.35;;;24.80;99.90;;;;;;5121961;27;20112;-75
2023/06/07 11:33:13;;;;;;;2.28;1.00;;;25.60;99.90;;;;;;5116308;27;20094;-75
2023/06/07 11:35:40;;;;;;;0.20;0.20;;;25.80;99.90;;;;;;5120687;27;20070;-74
2023/06/07 11:38:06;;;;;;;5.00;1.08;;;25.80;99.90;;;;;;5130026;27;20582;-74
2023/06/07 11:40:32;;;;;;;0.38;0.38;;;26.50;99.90;;;;;;5122710;27;20038;-74
2023/06/07 11:42:57;;;;;;;0.95;0.75;;;26.30;99.90;;;;;;5119945;28;20047;-74
2023/06/07 11:45:23;;;;;;;0.77;0.60;;;26.80;99.90;;;;;;5120177;28;20039;-73
2023/06/07 11:47:49;;;;;;;0.70;0.60;;;27.20;99.90;;;;;;5119955;27;20043;-74
2023/06/07 11:50:16;;;;;;;0.32;0.32;;;27.60;99.90;;;;;;5121123;27;20549;-74
2023/06/07 11:52:41;;;;;;;0.35;0.35;;;28.10;99.90;;;;;;5140698;27;20080;-74
2023/06/07 11:55:08;;;;;;;1.15;0.85;;;28.70;99.90;;;;;;5136267;27;20126;-74
2023/06/07 11:57:38;;;;;;;1.20;0.65;;;29.00;99.90;;;;;;5119758;27;20051;-74
2023/06/07 12:00:12;;;;;;;1.38;0.63;;;29.40;99.90;;;;;;5120124;28;20051;-74
2023/06/07 12:02:40;;;;;;;3.92;1.45;;;30.00;99.90;;;;;;5122819;27;20046;-74
2023/06/07 12:05:09;;;;;;;0.65;0.55;;;30.00;99.90;;;;;;5131166;27;20047;-74
2023/06/07 12:07:35;;;;;;;0.28;0.17;;;30.50;99.90;;;;;;5123650;27;20447;-74
2023/06/07 12:10:02;;;;;;;0.10;0.10;;;30.10;99.90;;;;;;5124237;27;20116;-74
2023/06/07 12:12:27;;;;;;;1.08;0.55;;;30.20;99.90;;;;;;5140617;27;20478;-74
2023/06/07 12:15:03;;;;;;;3.92;1.50;;;30.00;99.90;;;;;;5140392;27;20039;-74
2023/06/07 12:17:35;;;;;;;0.00;0.00;;;29.80;99.90;;;;;;5124110;27;20043;-73
2023/06/07 12:20:12;;;;;;;0.10;0.10;;;29.80;99.90;;;;;;5112865;27;20031;-73
2023/06/07 12:22:38;;;;;;;0.95;0.63;;;29.50;99.90;;;;;;5124033;27;20054;-74
2023/06/07 12:25:09;;;;;;;1.48;0.68;;;30.10;99.90;;;;;;5124268;27;20050;-73
2023/06/07 12:27:37;;;;;;;1.35;0.63;;;30.30;99.90;;;;;;5123785;27;20087;-74
2023/06/07 12:30:06;;;;;;;1.60;1.08;;;30.00;99.90;;;;;;5129331;27;20047;-73
2023/06/07 12:32:32;;;;;;;0.20;0.20;;;29.80;99.90;;;;;;5144694;27;20171;-73
2023/06/07 12:35:05;;;;;;;0.65;0.40;;;30.10;99.90;;;;;;5144994;27;20531;-72
2023/06/07 12:37:37;;;;;;;3.10;0.85;;;30.60;99.90;;;;;;5144359;27;20567;-73
2023/06/07 12:40:05;;;;;;;1.55;1.17;;;31.10;99.90;;;;;;5143725;27;20035;-74
2023/06/07 12:42:32;;;;;;;0.98;0.63;;;31.00;99.90;;;;;;5119492;27;20505;-73
2023/06/07 12:44:58;;;;;;;1.35;0.93;;;31.20;99.90;;;;;;5125585;27;20089;-74
2023/06/07 12:47:23;;;;;;;0.25;0.25;;;29.90;99.90;;;;;;5126178;27;20062;-74
2023/06/07 12:49:49;;;;;;;0.77;0.25;;;30.20;99.90;;;;;;5126584;27;20043;-74
2023/06/07 12:52:15;;;;;;;2.05;1.02;;;30.70;99.90;;;;;;5126993;27;20055;-74
2023/06/07 12:54:41;;;;;;;0.45;0.30;;;30.00;99.90;;;;;;5130663;27;20216;-74
2023/06/07 12:57:07;;;;;;;0.32;0.22;;;29.50;99.90;;;;;;5126251;27;20051;-72